sensor_id;sensor_type;location;lat;lon;timestamp;temperature;humidity
65038;DHT22;51605;47.040;15.294;2022-09-03T00:01:12;24.90;51.40
65038;DHT22;51605;47.040;15.294;2022-09-03T00:03:48;24.90;51.40
65038;DHT22;51605;47.040;15.294;2022-09-03T00:06:29;24.90;51.50
65038;DHT22;51605;47.040;15.294;2022-09-03T00:09:02;24.90;51.40
65038;DHT22;51605;47.040;15.294;2022-09-03T00:11:50;24.90;51.40
65038;DHT22;51605;47.040;15.294;2022-09-03T00:14:52;24.80;51.40
65038;DHT22;51605;47.040;15.294;2022-09-03T00:17:23;24.90;51.40
65038;DHT22;51605;47.040;15.294;2022-09-03T00:20:16;24.90;51.40
65038;DHT22;51605;47.040;15.294;2022-09-03T00:22:54;24.90;51.40
65038;DHT22;51605;47.040;15.294;2022-09-03T00:25:34;24.90;51.40
65038;DHT22;51605;47.040;15.294;2022-09-03T00:28:09;24.90;51.40
65038;DHT22;51605;47.040;15.294;2022-09-03T00:30:37;24.90;51.20
65038;DHT22;51605;47.040;15.294;2022-09-03T00:33:18;24.90;51.40
65038;DHT22;51605;47.040;15.294;2022-09-03T00:36:01;24.90;51.20
65038;DHT22;51605;47.040;15.294;2022-09-03T00:38:29;24.90;51.20
65038;DHT22;51605;47.040;15.294;2022-09-03T01:00:38;24.80;50.80
65038;DHT22;51605;47.040;15.294;2022-09-03T01:03:14;24.90;50.80
65038;DHT22;51605;47.040;15.294;2022-09-03T01:08:48;24.80;50.70
65038;DHT22;51605;47.040;15.294;2022-09-03T01:12:07;24.80;50.70
65038;DHT22;51605;47.040;15.294;2022-09-03T01:14:21;24.80;50.60
65038;DHT22;51605;47.040;15.294;2022-09-03T01:17:22;24.80;50.70
65038;DHT22;51605;47.040;15.294;2022-09-03T01:25:40;24.80;50.30
65038;DHT22;51605;47.040;15.294;2022-09-03T01:33:42;24.80;50.20
65038;DHT22;51605;47.040;15.294;2022-09-03T01:36:33;24.80;50.30
65038;DHT22;51605;47.040;15.294;2022-09-03T01:39:04;24.80;50.40
65038;DHT22;51605;47.040;15.294;2022-09-03T01:59:19;24.80;50.10
65038;DHT22;51605;47.040;15.294;2022-09-03T02:01:54;24.80;50.00
65038;DHT22;51605;47.040;15.294;2022-09-03T02:04:25;24.80;50.00
65038;DHT22;51605;47.040;15.294;2022-09-03T02:06:53;24.80;50.00
65038;DHT22;51605;47.040;15.294;2022-09-03T02:09:19;24.80;50.10
65038;DHT22;51605;47.040;15.294;2022-09-03T02:11:57;24.80;50.10
65038;DHT22;51605;47.040;15.294;2022-09-03T02:14:28;24.80;49.90
65038;DHT22;51605;47.040;15.294;2022-09-03T02:16:55;24.80;49.90
65038;DHT22;51605;47.040;15.294;2022-09-03T02:19:22;24.80;49.90
65038;DHT22;51605;47.040;15.294;2022-09-03T02:21:53;24.80;49.90
65038;DHT22;51605;47.040;15.294;2022-09-03T02:24:20;24.80;49.80
65038;DHT22;51605;47.040;15.294;2022-09-03T02:26:45;24.80;49.80
65038;DHT22;51605;47.040;15.294;2022-09-03T02:29:13;24.80;49.80
65038;DHT22;51605;47.040;15.294;2022-09-03T02:31:39;24.80;49.80
65038;DHT22;51605;47.040;15.294;2022-09-03T02:34:05;24.80;49.80
65038;DHT22;51605;47.040;15.294;2022-09-03T02:36:34;24.80;49.70
65038;DHT22;51605;47.040;15.294;2022-09-03T02:39:00;24.80;49.70
65038;DHT22;51605;47.040;15.294;2022-09-03T02:41:26;24.80;49.60
65038;DHT22;51605;47.040;15.294;2022-09-03T02:44:00;24.80;49.60
65038;DHT22;51605;47.040;15.294;2022-09-03T02:46:32;24.80;49.30
65038;DHT22;51605;47.040;15.294;2022-09-03T02:48:59;24.80;49.50
65038;DHT22;51605;47.040;15.294;2022-09-03T02:51:25;24.80;49.40
65038;DHT22;51605;47.040;15.294;2022-09-03T02:53:51;24.80;49.60
65038;DHT22;51605;47.040;15.294;2022-09-03T02:56:16;24.80;49.40
65038;DHT22;51605;47.040;15.294;2022-09-03T02:58:42;24.80;49.40
65038;DHT22;51605;47.040;15.294;2022-09-03T03:01:08;24.80;50.50
65038;DHT22;51605;47.040;15.294;2022-09-03T03:03:34;24.80;49.50
65038;DHT22;51605;47.040;15.294;2022-09-03T03:06:02;24.80;49.40
65038;DHT22;51605;47.040;15.294;2022-09-03T03:08:28;24.80;49.30
65038;DHT22;51605;47.040;15.294;2022-09-03T03:10:56;24.80;49.20
65038;DHT22;51605;47.040;15.294;2022-09-03T03:13:23;24.80;49.30
65038;DHT22;51605;47.040;15.294;2022-09-03T03:15:49;24.70;49.40
65038;DHT22;51605;47.040;15.294;2022-09-03T03:18:15;24.70;49.20
65038;DHT22;51605;47.040;15.294;2022-09-03T03:20:43;24.70;49.20
65038;DHT22;51605;47.040;15.294;2022-09-03T03:23:09;24.70;49.10
65038;DHT22;51605;47.040;15.294;2022-09-03T03:25:37;24.70;49.20
65038;DHT22;51605;47.040;15.294;2022-09-03T03:28:04;24.80;49.20
65038;DHT22;51605;47.040;15.294;2022-09-03T03:30:30;24.70;49.00
65038;DHT22;51605;47.040;15.294;2022-09-03T03:32:56;24.70;49.10
65038;DHT22;51605;47.040;15.294;2022-09-03T03:35:22;24.80;48.90
65038;DHT22;51605;47.040;15.294;2022-09-03T03:37:48;24.80;48.90
65038;DHT22;51605;47.040;15.294;2022-09-03T03:40:14;24.80;48.90
65038;DHT22;51605;47.040;15.294;2022-09-03T03:42:40;24.70;48.80
65038;DHT22;51605;47.040;15.294;2022-09-03T03:45:06;24.70;48.90
65038;DHT22;51605;47.040;15.294;2022-09-03T03:47:32;24.70;48.70
65038;DHT22;51605;47.040;15.294;2022-09-03T03:49:59;24.70;48.90
65038;DHT22;51605;47.040;15.294;2022-09-03T03:52:25;24.80;48.70
65038;DHT22;51605;47.040;15.294;2022-09-03T03:54:51;24.80;48.70
65038;DHT22;51605;47.040;15.294;2022-09-03T03:57:18;24.70;48.90
65038;DHT22;51605;47.040;15.294;2022-09-03T03:59:44;24.70;48.80
65038;DHT22;51605;47.040;15.294;2022-09-03T04:02:11;24.70;48.70
65038;DHT22;51605;47.040;15.294;2022-09-03T04:04:37;24.70;48.60
65038;DHT22;51605;47.040;15.294;2022-09-03T04:07:03;24.70;48.70
65038;DHT22;51605;47.040;15.294;2022-09-03T04:09:28;24.70;48.60
65038;DHT22;51605;47.040;15.294;2022-09-03T04:11:54;24.70;48.60
65038;DHT22;51605;47.040;15.294;2022-09-03T04:14:25;24.70;48.60
65038;DHT22;51605;47.040;15.294;2022-09-03T04:16:52;24.70;48.60
65038;DHT22;51605;47.040;15.294;2022-09-03T04:19:17;24.70;48.50
65038;DHT22;51605;47.040;15.294;2022-09-03T04:21:44;24.70;48.50
65038;DHT22;51605;47.040;15.294;2022-09-03T04:24:09;24.70;48.50
65038;DHT22;51605;47.040;15.294;2022-09-03T04:26:35;24.70;48.50
65038;DHT22;51605;47.040;15.294;2022-09-03T04:29:04;24.70;48.50
65038;DHT22;51605;47.040;15.294;2022-09-03T04:31:30;24.70;48.30
65038;DHT22;51605;47.040;15.294;2022-09-03T04:33:56;24.70;48.50
65038;DHT22;51605;47.040;15.294;2022-09-03T04:36:24;24.70;48.30
65038;DHT22;51605;47.040;15.294;2022-09-03T04:38:52;24.70;48.30
65038;DHT22;51605;47.040;15.294;2022-09-03T04:41:23;24.70;48.20
65038;DHT22;51605;47.040;15.294;2022-09-03T04:43:54;24.70;48.50
65038;DHT22;51605;47.040;15.294;2022-09-03T04:46:21;24.70;48.30
65038;DHT22;51605;47.040;15.294;2022-09-03T04:48:48;24.70;48.40
65038;DHT22;51605;47.040;15.294;2022-09-03T04:51:20;24.70;49.20
65038;DHT22;51605;47.040;15.294;2022-09-03T04:53:47;24.70;48.40
65038;DHT22;51605;47.040;15.294;2022-09-03T04:56:19;24.70;48.50
65038;DHT22;51605;47.040;15.294;2022-09-03T04:58:46;24.70;48.30
65038;DHT22;51605;47.040;15.294;2022-09-03T05:01:14;24.70;48.30
65038;DHT22;51605;47.040;15.294;2022-09-03T05:03:40;24.70;48.30
65038;DHT22;51605;47.040;15.294;2022-09-03T05:06:06;24.70;48.30
65038;DHT22;51605;47.040;15.294;2022-09-03T05:08:33;24.70;48.20
65038;DHT22;51605;47.040;15.294;2022-09-03T05:11:03;24.70;48.50
65038;DHT22;51605;47.040;15.294;2022-09-03T05:13:30;24.70;48.90
65038;DHT22;51605;47.040;15.294;2022-09-03T05:16:04;24.70;49.10
65038;DHT22;51605;47.040;15.294;2022-09-03T05:18:31;24.70;49.00
65038;DHT22;51605;47.040;15.294;2022-09-03T05:21:04;24.70;48.50
65038;DHT22;51605;47.040;15.294;2022-09-03T05:23:31;24.70;48.40
65038;DHT22;51605;47.040;15.294;2022-09-03T05:26:02;24.70;48.40
65038;DHT22;51605;47.040;15.294;2022-09-03T05:28:29;24.70;48.40
65038;DHT22;51605;47.040;15.294;2022-09-03T05:31:09;24.70;48.50
65038;DHT22;51605;47.040;15.294;2022-09-03T05:33:37;24.70;48.60
65038;DHT22;51605;47.040;15.294;2022-09-03T05:36:05;24.70;48.90
65038;DHT22;51605;47.040;15.294;2022-09-03T05:38:31;24.70;49.00
65038;DHT22;51605;47.040;15.294;2022-09-03T05:41:02;24.70;48.80
65038;DHT22;51605;47.040;15.294;2022-09-03T05:43:29;24.70;49.20
65038;DHT22;51605;47.040;15.294;2022-09-03T05:48:32;24.70;49.70
65038;DHT22;51605;47.040;15.294;2022-09-03T05:51:03;24.70;49.60
65038;DHT22;51605;47.040;15.294;2022-09-03T05:53:33;24.70;49.80
65038;DHT22;51605;47.040;15.294;2022-09-03T05:56:11;24.70;49.70
65038;DHT22;51605;47.040;15.294;2022-09-03T05:58:41;24.70;49.80
65038;DHT22;51605;47.040;15.294;2022-09-03T06:01:12;24.70;49.70
65038;DHT22;51605;47.040;15.294;2022-09-03T06:03:39;24.70;49.80
65038;DHT22;51605;47.040;15.294;2022-09-03T06:06:05;24.70;49.80
65038;DHT22;51605;47.040;15.294;2022-09-03T06:08:32;24.70;49.80
65038;DHT22;51605;47.040;15.294;2022-09-03T06:11:01;24.80;49.70
65038;DHT22;51605;47.040;15.294;2022-09-03T06:13:29;24.80;49.80
65038;DHT22;51605;47.040;15.294;2022-09-03T06:15:59;24.80;49.90
65038;DHT22;51605;47.040;15.294;2022-09-03T06:18:26;24.70;49.90
65038;DHT22;51605;47.040;15.294;2022-09-03T06:20:53;24.70;49.90
65038;DHT22;51605;47.040;15.294;2022-09-03T06:23:18;24.70;50.00
65038;DHT22;51605;47.040;15.294;2022-09-03T06:25:44;24.80;49.70
65038;DHT22;51605;47.040;15.294;2022-09-03T06:28:10;24.80;49.80
65038;DHT22;51605;47.040;15.294;2022-09-03T06:30:35;24.80;49.70
65038;DHT22;51605;47.040;15.294;2022-09-03T06:33:01;24.70;49.70
65038;DHT22;51605;47.040;15.294;2022-09-03T06:35:27;24.70;49.80
65038;DHT22;51605;47.040;15.294;2022-09-03T06:37:52;24.70;50.00
65038;DHT22;51605;47.040;15.294;2022-09-03T06:40:18;24.70;50.10
65038;DHT22;51605;47.040;15.294;2022-09-03T06:42:55;24.60;50.10
65038;DHT22;51605;47.040;15.294;2022-09-03T06:45:27;24.70;50.20
65038;DHT22;51605;47.040;15.294;2022-09-03T06:47:53;24.70;50.30
65038;DHT22;51605;47.040;15.294;2022-09-03T06:50:19;24.70;50.20
65038;DHT22;51605;47.040;15.294;2022-09-03T06:52:50;24.70;50.30
65038;DHT22;51605;47.040;15.294;2022-09-03T06:55:17;24.60;50.30
65038;DHT22;51605;47.040;15.294;2022-09-03T06:57:43;24.70;50.40
65038;DHT22;51605;47.040;15.294;2022-09-03T07:00:09;24.70;50.40
65038;DHT22;51605;47.040;15.294;2022-09-03T07:02:34;24.60;50.40
65038;DHT22;51605;47.040;15.294;2022-09-03T07:05:00;24.70;50.40
65038;DHT22;51605;47.040;15.294;2022-09-03T07:07:25;24.60;50.40
65038;DHT22;51605;47.040;15.294;2022-09-03T07:09:51;24.60;50.50
65038;DHT22;51605;47.040;15.294;2022-09-03T07:12:17;24.60;50.50
65038;DHT22;51605;47.040;15.294;2022-09-03T07:14:46;24.60;50.50
65038;DHT22;51605;47.040;15.294;2022-09-03T07:17:11;24.70;50.50
65038;DHT22;51605;47.040;15.294;2022-09-03T07:19:37;24.60;50.50
65038;DHT22;51605;47.040;15.294;2022-09-03T07:22:02;24.60;50.50
65038;DHT22;51605;47.040;15.294;2022-09-03T07:24:28;24.60;50.50
65038;DHT22;51605;47.040;15.294;2022-09-03T07:26:54;24.60;50.40
65038;DHT22;51605;47.040;15.294;2022-09-03T07:29:22;24.70;50.50
65038;DHT22;51605;47.040;15.294;2022-09-03T07:31:49;24.70;50.60
65038;DHT22;51605;47.040;15.294;2022-09-03T07:34:18;24.60;51.50
65038;DHT22;51605;47.040;15.294;2022-09-03T07:36:45;24.60;50.50
65038;DHT22;51605;47.040;15.294;2022-09-03T07:39:12;24.60;50.50
65038;DHT22;51605;47.040;15.294;2022-09-03T07:41:39;24.60;50.50
65038;DHT22;51605;47.040;15.294;2022-09-03T07:44:13;24.60;50.50
65038;DHT22;51605;47.040;15.294;2022-09-03T07:46:40;24.60;50.60
65038;DHT22;51605;47.040;15.294;2022-09-03T07:49:07;24.60;50.50
65038;DHT22;51605;47.040;15.294;2022-09-03T07:51:36;24.60;50.50
65038;DHT22;51605;47.040;15.294;2022-09-03T07:54:05;24.60;50.50
65038;DHT22;51605;47.040;15.294;2022-09-03T07:56:33;24.60;50.50
65038;DHT22;51605;47.040;15.294;2022-09-03T07:59:02;24.60;50.50
65038;DHT22;51605;47.040;15.294;2022-09-03T08:01:29;24.60;50.60
65038;DHT22;51605;47.040;15.294;2022-09-03T08:03:57;24.60;50.60
65038;DHT22;51605;47.040;15.294;2022-09-03T08:06:26;24.60;50.60
65038;DHT22;51605;47.040;15.294;2022-09-03T08:08:57;24.60;50.60
65038;DHT22;51605;47.040;15.294;2022-09-03T08:11:24;24.60;51.60
65038;DHT22;51605;47.040;15.294;2022-09-03T08:13:57;24.60;50.70
65038;DHT22;51605;47.040;15.294;2022-09-03T08:16:32;24.60;50.70
65038;DHT22;51605;47.040;15.294;2022-09-03T08:18:58;24.60;50.70
65038;DHT22;51605;47.040;15.294;2022-09-03T08:21:25;24.60;50.60
65038;DHT22;51605;47.040;15.294;2022-09-03T08:23:53;24.60;50.70
65038;DHT22;51605;47.040;15.294;2022-09-03T08:26:20;24.60;50.70
65038;DHT22;51605;47.040;15.294;2022-09-03T08:28:46;24.60;50.70
65038;DHT22;51605;47.040;15.294;2022-09-03T08:31:18;24.60;50.70
65038;DHT22;51605;47.040;15.294;2022-09-03T08:33:46;24.60;50.70
65038;DHT22;51605;47.040;15.294;2022-09-03T08:36:18;24.60;50.70
65038;DHT22;51605;47.040;15.294;2022-09-03T08:38:45;24.60;50.70
65038;DHT22;51605;47.040;15.294;2022-09-03T08:46:47;24.60;50.50
65038;DHT22;51605;47.040;15.294;2022-09-03T08:49:22;24.60;50.60
65038;DHT22;51605;47.040;15.294;2022-09-03T08:51:50;24.60;50.70
65038;DHT22;51605;47.040;15.294;2022-09-03T08:54:17;24.60;50.70
65038;DHT22;51605;47.040;15.294;2022-09-03T08:56:45;24.60;50.80
65038;DHT22;51605;47.040;15.294;2022-09-03T08:59:12;24.60;50.80
65038;DHT22;51605;47.040;15.294;2022-09-03T09:01:56;24.60;50.80
65038;DHT22;51605;47.040;15.294;2022-09-03T09:07:10;24.50;50.80
65038;DHT22;51605;47.040;15.294;2022-09-03T09:10:39;24.60;50.80
65038;DHT22;51605;47.040;15.294;2022-09-03T09:15:29;24.60;50.80
65038;DHT22;51605;47.040;15.294;2022-09-03T09:18:11;24.50;50.90
65038;DHT22;51605;47.040;15.294;2022-09-03T09:23:32;24.60;50.80
65038;DHT22;51605;47.040;15.294;2022-09-03T09:26:03;24.60;50.90
65038;DHT22;51605;47.040;15.294;2022-09-03T09:28:35;24.60;50.80
65038;DHT22;51605;47.040;15.294;2022-09-03T09:31:04;24.60;51.00
65038;DHT22;51605;47.040;15.294;2022-09-03T09:33:33;24.50;50.90
65038;DHT22;51605;47.040;15.294;2022-09-03T09:36:05;24.50;50.80
65038;DHT22;51605;47.040;15.294;2022-09-03T09:38:35;24.60;50.80
65038;DHT22;51605;47.040;15.294;2022-09-03T09:41:12;24.60;50.80
65038;DHT22;51605;47.040;15.294;2022-09-03T09:43:38;24.60;50.80
65038;DHT22;51605;47.040;15.294;2022-09-03T09:46:22;24.60;51.00
65038;DHT22;51605;47.040;15.294;2022-09-03T09:48:56;24.60;51.00
65038;DHT22;51605;47.040;15.294;2022-09-03T09:51:30;24.50;51.20
65038;DHT22;51605;47.040;15.294;2022-09-03T09:54:14;24.50;51.20
65038;DHT22;51605;47.040;15.294;2022-09-03T09:56:45;24.50;51.20
65038;DHT22;51605;47.040;15.294;2022-09-03T09:59:12;24.50;52.00
65038;DHT22;51605;47.040;15.294;2022-09-03T10:01:40;24.50;51.00
65038;DHT22;51605;47.040;15.294;2022-09-03T10:06:45;24.60;51.00
65038;DHT22;51605;47.040;15.294;2022-09-03T10:09:28;24.50;51.10
65038;DHT22;51605;47.040;15.294;2022-09-03T10:17:26;24.60;51.10
65038;DHT22;51605;47.040;15.294;2022-09-03T10:28:09;24.50;51.20
65038;DHT22;51605;47.040;15.294;2022-09-03T10:33:47;24.50;51.20
65038;DHT22;51605;47.040;15.294;2022-09-03T10:36:17;24.50;51.20
65038;DHT22;51605;47.040;15.294;2022-09-03T10:38:52;24.50;51.20
65038;DHT22;51605;47.040;15.294;2022-09-03T10:49:38;24.50;51.20
65038;DHT22;51605;47.040;15.294;2022-09-03T10:52:32;24.40;51.10
65038;DHT22;51605;47.040;15.294;2022-09-03T10:55:10;24.40;51.10
65038;DHT22;51605;47.040;15.294;2022-09-03T11:00:23;24.50;51.20
65038;DHT22;51605;47.040;15.294;2022-09-03T11:11:06;24.40;51.10
65038;DHT22;51605;47.040;15.294;2022-09-03T11:13:39;24.50;51.20
65038;DHT22;51605;47.040;15.294;2022-09-03T11:16:27;24.50;51.20
65038;DHT22;51605;47.040;15.294;2022-09-03T11:19:03;24.50;51.20
65038;DHT22;51605;47.040;15.294;2022-09-03T11:21:30;24.50;51.20
65038;DHT22;51605;47.040;15.294;2022-09-03T11:26:32;24.40;51.40
65038;DHT22;51605;47.040;15.294;2022-09-03T11:29:16;24.40;51.40
65038;DHT22;51605;47.040;15.294;2022-09-03T11:31:53;24.40;51.50
65038;DHT22;51605;47.040;15.294;2022-09-03T11:42:10;24.40;51.60
65038;DHT22;51605;47.040;15.294;2022-09-03T11:44:42;24.40;51.70
65038;DHT22;51605;47.040;15.294;2022-09-03T11:49:52;24.40;51.70
65038;DHT22;51605;47.040;15.294;2022-09-03T11:52:30;24.40;51.70
65038;DHT22;51605;47.040;15.294;2022-09-03T11:54:57;24.40;51.70
65038;DHT22;51605;47.040;15.294;2022-09-03T11:59:52;24.40;51.70
65038;DHT22;51605;47.040;15.294;2022-09-03T12:02:25;24.40;51.70
65038;DHT22;51605;47.040;15.294;2022-09-03T12:07:56;24.40;51.80
65038;DHT22;51605;47.040;15.294;2022-09-03T12:10:50;24.40;51.60
65038;DHT22;51605;47.040;15.294;2022-09-03T12:21:52;24.40;51.70
65038;DHT22;51605;47.040;15.294;2022-09-03T12:24:20;24.40;51.70
65038;DHT22;51605;47.040;15.294;2022-09-03T12:26:47;24.40;51.70
65038;DHT22;51605;47.040;15.294;2022-09-03T12:29:27;24.40;51.70
65038;DHT22;51605;47.040;15.294;2022-09-03T12:31:54;24.40;51.70
65038;DHT22;51605;47.040;15.294;2022-09-03T12:34:23;24.40;51.80
65038;DHT22;51605;47.040;15.294;2022-09-03T12:36:52;24.40;51.70
65038;DHT22;51605;47.040;15.294;2022-09-03T12:39:21;24.40;51.80
65038;DHT22;51605;47.040;15.294;2022-09-03T12:44:31;24.40;51.70
65038;DHT22;51605;47.040;15.294;2022-09-03T12:47:11;24.40;51.70
65038;DHT22;51605;47.040;15.294;2022-09-03T12:49:46;24.40;51.80
65038;DHT22;51605;47.040;15.294;2022-09-03T12:52:27;24.40;51.70
65038;DHT22;51605;47.040;15.294;2022-09-03T12:57:32;24.40;51.70
65038;DHT22;51605;47.040;15.294;2022-09-03T13:00:04;24.40;51.80
65038;DHT22;51605;47.040;15.294;2022-09-03T13:05:32;24.40;51.80
65038;DHT22;51605;47.040;15.294;2022-09-03T13:08:01;24.40;51.70
65038;DHT22;51605;47.040;15.294;2022-09-03T13:10:37;24.40;51.70
65038;DHT22;51605;47.040;15.294;2022-09-03T13:13:22;24.40;51.70
65038;DHT22;51605;47.040;15.294;2022-09-03T13:16:04;24.40;51.80
65038;DHT22;51605;47.040;15.294;2022-09-03T13:26:26;24.50;51.70
65038;DHT22;51605;47.040;15.294;2022-09-03T13:29:19;24.40;51.80
65038;DHT22;51605;47.040;15.294;2022-09-03T13:31:56;24.40;51.80
65038;DHT22;51605;47.040;15.294;2022-09-03T13:34:38;24.40;51.80
65038;DHT22;51605;47.040;15.294;2022-09-03T13:37:30;24.40;51.90
65038;DHT22;51605;47.040;15.294;2022-09-03T13:40:02;24.40;51.90
65038;DHT22;51605;47.040;15.294;2022-09-03T13:42:40;24.40;51.90
65038;DHT22;51605;47.040;15.294;2022-09-03T13:45:40;24.40;51.90
65038;DHT22;51605;47.040;15.294;2022-09-03T13:48:21;24.30;52.00
65038;DHT22;51605;47.040;15.294;2022-09-03T13:51:26;24.40;51.90
65038;DHT22;51605;47.040;15.294;2022-09-03T13:54:19;24.40;51.90
65038;DHT22;51605;47.040;15.294;2022-09-03T13:59:47;24.40;51.90
65038;DHT22;51605;47.040;15.294;2022-09-03T14:05:14;24.40;51.90
65038;DHT22;51605;47.040;15.294;2022-09-03T14:10:27;24.40;51.90
65038;DHT22;51605;47.040;15.294;2022-09-03T14:15:55;24.40;52.00
65038;DHT22;51605;47.040;15.294;2022-09-03T14:18:48;24.40;52.00
65038;DHT22;51605;47.040;15.294;2022-09-03T14:21:21;24.40;52.00
65038;DHT22;51605;47.040;15.294;2022-09-03T14:26:31;24.40;52.10
65038;DHT22;51605;47.040;15.294;2022-09-03T14:29:15;24.40;52.10
65038;DHT22;51605;47.040;15.294;2022-09-03T14:34:49;24.40;52.20
65038;DHT22;51605;47.040;15.294;2022-09-03T14:40:45;24.40;52.10
65038;DHT22;51605;47.040;15.294;2022-09-03T14:46:04;24.40;52.00
65038;DHT22;51605;47.040;15.294;2022-09-03T14:57:06;24.40;52.30
65038;DHT22;51605;47.040;15.294;2022-09-03T15:08:38;24.40;52.20
65038;DHT22;51605;47.040;15.294;2022-09-03T15:11:30;24.40;52.20
65038;DHT22;51605;47.040;15.294;2022-09-03T15:14:13;24.40;52.20
65038;DHT22;51605;47.040;15.294;2022-09-03T15:16:59;24.40;52.30
65038;DHT22;51605;47.040;15.294;2022-09-03T15:30:21;24.30;52.40
65038;DHT22;51605;47.040;15.294;2022-09-03T15:40:54;24.30;52.60
65038;DHT22;51605;47.040;15.294;2022-09-03T15:43:40;24.30;52.50
65038;DHT22;51605;47.040;15.294;2022-09-03T15:46:13;24.30;52.60
65038;DHT22;51605;47.040;15.294;2022-09-03T15:49:17;24.30;52.50
65038;DHT22;51605;47.040;15.294;2022-09-03T15:54:55;24.30;52.50
65038;DHT22;51605;47.040;15.294;2022-09-03T15:57:29;24.30;52.50
65038;DHT22;51605;47.040;15.294;2022-09-03T16:02:46;24.30;52.60
65038;DHT22;51605;47.040;15.294;2022-09-03T16:05:20;24.30;52.60
65038;DHT22;51605;47.040;15.294;2022-09-03T16:11:04;24.30;52.60
65038;DHT22;51605;47.040;15.294;2022-09-03T16:14:26;24.30;52.60
65038;DHT22;51605;47.040;15.294;2022-09-03T16:25:02;24.30;52.60
65038;DHT22;51605;47.040;15.294;2022-09-03T16:28:00;24.30;52.60
65038;DHT22;51605;47.040;15.294;2022-09-03T16:46:44;24.30;52.80
65038;DHT22;51605;47.040;15.294;2022-09-03T16:55:15;24.30;52.80
65038;DHT22;51605;47.040;15.294;2022-09-03T17:00:16;24.30;52.80
65038;DHT22;51605;47.040;15.294;2022-09-03T17:02:47;24.30;52.90
65038;DHT22;51605;47.040;15.294;2022-09-03T17:15:57;24.30;53.00
65038;DHT22;51605;47.040;15.294;2022-09-03T17:21:50;24.30;53.90
65038;DHT22;51605;47.040;15.294;2022-09-03T17:32:50;24.40;52.90
65038;DHT22;51605;47.040;15.294;2022-09-03T17:40:56;24.30;52.90
65038;DHT22;51605;47.040;15.294;2022-09-03T17:43:41;24.30;53.00
65038;DHT22;51605;47.040;15.294;2022-09-03T17:49:33;24.30;53.20
65038;DHT22;51605;47.040;15.294;2022-09-03T17:52:51;24.30;53.10
65038;DHT22;51605;47.040;15.294;2022-09-03T17:55:01;24.30;53.00
65038;DHT22;51605;47.040;15.294;2022-09-03T17:57:49;24.40;53.00
65038;DHT22;51605;47.040;15.294;2022-09-03T18:00:28;24.30;53.00
65038;DHT22;51605;47.040;15.294;2022-09-03T18:03:04;24.30;53.00
65038;DHT22;51605;47.040;15.294;2022-09-03T18:05:41;24.30;53.10
65038;DHT22;51605;47.040;15.294;2022-09-03T18:08:20;24.30;53.00
65038;DHT22;51605;47.040;15.294;2022-09-03T18:11:12;24.30;53.10
65038;DHT22;51605;47.040;15.294;2022-09-03T18:16:45;24.30;53.20
65038;DHT22;51605;47.040;15.294;2022-09-03T18:22:00;24.30;53.10
65038;DHT22;51605;47.040;15.294;2022-09-03T18:24:53;24.30;53.10
65038;DHT22;51605;47.040;15.294;2022-09-03T18:27:45;24.30;53.20
65038;DHT22;51605;47.040;15.294;2022-09-03T18:30:32;24.30;53.10
65038;DHT22;51605;47.040;15.294;2022-09-03T18:33:20;24.30;53.20
65038;DHT22;51605;47.040;15.294;2022-09-03T18:36:06;24.30;53.30
65038;DHT22;51605;47.040;15.294;2022-09-03T18:38:51;24.30;53.20
65038;DHT22;51605;47.040;15.294;2022-09-03T18:44:51;24.30;53.30
65038;DHT22;51605;47.040;15.294;2022-09-03T18:53:56;24.20;53.30
65038;DHT22;51605;47.040;15.294;2022-09-03T18:56:49;24.20;53.30
65038;DHT22;51605;47.040;15.294;2022-09-03T19:02:50;24.30;53.40
65038;DHT22;51605;47.040;15.294;2022-09-03T19:08:38;24.20;53.40
65038;DHT22;51605;47.040;15.294;2022-09-03T19:11:40;24.20;53.30
65038;DHT22;51605;47.040;15.294;2022-09-03T19:14:55;24.20;53.30
65038;DHT22;51605;47.040;15.294;2022-09-03T19:18:17;24.20;53.30
65038;DHT22;51605;47.040;15.294;2022-09-03T19:21:35;24.30;53.40
65038;DHT22;51605;47.040;15.294;2022-09-03T19:24:26;24.20;53.40
65038;DHT22;51605;47.040;15.294;2022-09-03T19:27:40;24.30;53.30
65038;DHT22;51605;47.040;15.294;2022-09-03T19:30:58;24.30;54.20
65038;DHT22;51605;47.040;15.294;2022-09-03T19:43:12;24.30;53.20
65038;DHT22;51605;47.040;15.294;2022-09-03T19:52:08;24.30;53.20
65038;DHT22;51605;47.040;15.294;2022-09-03T19:54:57;24.30;53.20
65038;DHT22;51605;47.040;15.294;2022-09-03T19:57:45;24.30;53.20
65038;DHT22;51605;47.040;15.294;2022-09-03T20:00:30;24.30;53.20
65038;DHT22;51605;47.040;15.294;2022-09-03T20:03:16;24.30;53.20
65038;DHT22;51605;47.040;15.294;2022-09-03T20:06:04;24.30;53.20
65038;DHT22;51605;47.040;15.294;2022-09-03T20:08:50;24.30;53.20
65038;DHT22;51605;47.040;15.294;2022-09-03T20:11:36;24.30;53.20
65038;DHT22;51605;47.040;15.294;2022-09-03T20:14:10;24.30;53.30
65038;DHT22;51605;47.040;15.294;2022-09-03T20:30:09;24.30;53.20
65038;DHT22;51605;47.040;15.294;2022-09-03T20:32:55;24.30;53.20
65038;DHT22;51605;47.040;15.294;2022-09-03T20:35:36;24.30;53.20
65038;DHT22;51605;47.040;15.294;2022-09-03T20:38:18;24.30;53.20
65038;DHT22;51605;47.040;15.294;2022-09-03T20:47:10;24.30;53.20
65038;DHT22;51605;47.040;15.294;2022-09-03T20:52:37;24.30;53.20
65038;DHT22;51605;47.040;15.294;2022-09-03T20:55:04;24.30;53.20
65038;DHT22;51605;47.040;15.294;2022-09-03T20:58:42;24.30;53.20
65038;DHT22;51605;47.040;15.294;2022-09-03T21:25:36;24.30;54.00
65038;DHT22;51605;47.040;15.294;2022-09-03T21:28:11;24.30;53.40
65038;DHT22;51605;47.040;15.294;2022-09-03T21:30:40;24.30;53.40
65038;DHT22;51605;47.040;15.294;2022-09-03T21:33:13;24.30;53.30
65038;DHT22;51605;47.040;15.294;2022-09-03T21:35:46;24.30;53.30
65038;DHT22;51605;47.040;15.294;2022-09-03T21:38:22;24.30;53.30
65038;DHT22;51605;47.040;15.294;2022-09-03T21:46:51;24.30;53.30
65038;DHT22;51605;47.040;15.294;2022-09-03T21:50:05;24.30;53.30
65038;DHT22;51605;47.040;15.294;2022-09-03T21:52:53;24.30;53.30
65038;DHT22;51605;47.040;15.294;2022-09-03T22:00:39;24.30;53.30
65038;DHT22;51605;47.040;15.294;2022-09-03T22:03:07;24.30;53.30
65038;DHT22;51605;47.040;15.294;2022-09-03T22:06:00;24.30;53.40
65038;DHT22;51605;47.040;15.294;2022-09-03T22:11:08;24.30;53.30
65038;DHT22;51605;47.040;15.294;2022-09-03T22:16:26;24.30;53.20
65038;DHT22;51605;47.040;15.294;2022-09-03T22:18:55;24.30;53.30
65038;DHT22;51605;47.040;15.294;2022-09-03T22:21:44;24.30;53.20